Time;durP1;ratioP1;P1;durP2;ratioP2;P2;SDS_P1;SDS_P2;PMS_P1;PMS_P2;Temp;Humidity;BMP_temperature;BMP_pressure;BME280_temperature;BME280_humidity;BME280_pressure;Samples;Min_cycle;Max_cycle;Signal;HPM_P1;HPM_P2
2023/12/30 00:01:49;;;;;;;;;;;;;;;1.14;93.63;95580.53;5115544;28;1032;-57
2023/12/30 00:04:15;;;;;;;;;;;;;;;1.15;93.60;95586.63;5115343;28;1025;-57
2023/12/30 00:06:43;;;;;;;;;;;;;;;1.06;92.67;95584.53;5115571;28;1051;-57
2023/12/30 00:09:09;;;;;;;;;;;;;;;1.00;92.78;95585.75;5115636;28;966;-57
2023/12/30 00:11:35;;;;;;;;;;;;;;;1.04;93.46;95586.44;5115498;28;981;-57
2023/12/30 00:14:01;;;;;;;;;;;;;;;1.04;92.89;95592.53;5115435;28;964;-57
2023/12/30 00:16:27;;;;;;;;;;;;;;;1.21;95.45;95593.31;5114895;28;1914;-57
2023/12/30 00:18:53;;;;;;;;;;;;;;;1.26;93.38;95597.34;5114595;28;1048;-57
2023/12/30 00:21:20;;;;;;;;;;;;;;;1.23;91.81;95589.63;5114933;28;940;-57
2023/12/30 00:23:46;;;;;;;;;;;;;;;1.19;91.95;95590.75;5115040;28;1100;-57
2023/12/30 00:26:22;;;;;;;;;;;;;;;1.17;92.38;95587.38;5115217;28;1037;-58
2023/12/30 00:28:49;;;;;;;;;;;;;;;0.99;92.13;95599.88;5096797;28;1162;-57
2023/12/30 00:31:21;;;;;;;;;;;;;;;0.86;91.56;95593.66;5114878;28;985;-57
2023/12/30 00:33:47;;;;;;;;;;;;;;;0.88;93.18;95594.41;5114928;28;973;-57
2023/12/30 00:36:13;;;;;;;;;;;;;;;0.67;94.18;95596.53;5114877;28;1985;-57
2023/12/30 00:38:39;;;;;;;;;;;;;;;0.58;93.56;95588.22;5114760;28;988;-57
2023/12/30 00:41:05;;;;;;;;;;;;;;;0.78;92.81;95587.06;5114905;28;985;-57
2023/12/30 00:43:32;;;;;;;;;;;;;;;0.75;93.08;95596.91;5114846;28;1041;-58
2023/12/30 00:45:58;;;;;;;;;;;;;;;0.73;93.23;95596.16;5114708;28;982;-57
2023/12/30 00:48:24;;;;;;;;;;;;;;;0.69;92.99;95597.28;5096102;28;1049;-57
2023/12/30 00:50:50;;;;;;;;;;;;;;;0.72;94.41;95597.97;5114808;28;1060;-57
2023/12/30 00:53:16;;;;;;;;;;;;;;;0.88;93.92;95603.16;5114379;28;1016;-57
2023/12/30 00:55:42;;;;;;;;;;;;;;;0.90;93.29;95597.81;5114398;28;1104;-57
2023/12/30 00:58:07;;;;;;;;;;;;;;;0.98;92.59;95604.28;5114332;28;1902;-57
2023/12/30 01:00:33;;;;;;;;;;;;;;;1.01;91.58;95605.06;5114228;28;1036;-58
2023/12/30 01:02:59;;;;;;;;;;;;;;;1.04;92.30;95600.44;5114296;28;969;-58
2023/12/30 01:05:25;;;;;;;;;;;;;;;0.61;91.52;95597.75;5114037;28;1052;-58
2023/12/30 01:07:51;;;;;;;;;;;;;;;0.54;93.02;95605.13;5114425;28;989;-57
2023/12/30 01:10:18;;;;;;;;;;;;;;;0.64;93.78;95605.44;5114386;28;1064;-57
2023/12/30 01:12:43;;;;;;;;;;;;;;;0.79;94.42;95606.31;5114098;28;937;-57
2023/12/30 01:15:10;;;;;;;;;;;;;;;0.72;92.58;95597.97;5114151;28;1104;-57
2023/12/30 01:17:36;;;;;;;;;;;;;;;0.62;91.73;95615.19;5114027;28;1981;-58
2023/12/30 01:20:02;;;;;;;;;;;;;;;0.43;91.62;95606.69;5113915;28;1068;-58
2023/12/30 01:22:28;;;;;;;;;;;;;;;0.50;93.25;95608.03;5114154;28;1026;-57
2023/12/30 01:24:54;;;;;;;;;;;;;;;0.63;93.20;95610.81;5114179;28;1047;-57
2023/12/30 01:27:20;;;;;;;;;;;;;;;0.73;92.37;95604.06;5113927;28;1162;-57
2023/12/30 01:29:46;;;;;;;;;;;;;;;0.70;91.56;95602.47;5113979;28;1052;-57
2023/12/30 01:32:12;;;;;;;;;;;;;;;0.54;91.62;95599.03;5113179;28;1028;-57
2023/12/30 01:34:38;;;;;;;;;;;;;;;0.58;92.28;95590.84;5114050;28;1086;-57
2023/12/30 01:37:04;;;;;;;;;;;;;;;0.41;92.62;95592.78;5114015;28;1906;-57
2023/12/30 01:39:30;;;;;;;;;;;;;;;0.37;92.54;95592.94;5113666;28;1167;-57
2023/12/30 01:41:55;;;;;;;;;;;;;;;0.51;93.88;95605.31;5113738;28;1095;-58
2023/12/30 01:44:22;;;;;;;;;;;;;;;0.38;93.39;95597.28;5113722;28;1024;-57
2023/12/30 01:46:48;;;;;;;;;;;;;;;0.42;93.44;95594.47;5113655;28;1111;-57
2023/12/30 01:49:15;;;;;;;;;;;;;;;0.52;94.80;95595.63;5113523;28;1304;-57
2023/12/30 01:51:41;;;;;;;;;;;;;;;0.55;94.59;95593.69;5113627;28;1095;-58
2023/12/30 01:54:08;;;;;;;;;;;;;;;0.63;95.02;95597.66;5113779;28;1060;-57
2023/12/30 01:56:35;;;;;;;;;;;;;;;0.72;94.61;95591.81;5095476;28;1898;-57
2023/12/30 01:59:02;;;;;;;;;;;;;;;0.40;88.83;95599.84;5113661;28;1012;-57
2023/12/30 02:01:28;;;;;;;;;;;;;;;0.19;91.33;95596.66;5113768;28;965;-57
2023/12/30 02:03:55;;;;;;;;;;;;;;;0.30;92.86;95588.97;5113750;28;1000;-57
2023/12/30 02:06:21;;;;;;;;;;;;;;;0.37;92.98;95586.84;5095532;28;1048;-58
2023/12/30 02:08:47;;;;;;;;;;;;;;;0.33;92.92;95594.06;5113475;28;1041;-58
2023/12/30 02:11:14;;;;;;;;;;;;;;;0.31;92.91;95592.47;5113351;28;1115;-57
2023/12/30 02:13:43;;;;;;;;;;;;;;;0.30;91.78;95588.13;5113475;28;1040;-57
2023/12/30 02:16:09;;;;;;;;;;;;;;;0.21;91.99;95584.25;5113212;28;1979;-57
2023/12/30 02:18:35;;;;;;;;;;;;;;;0.09;92.55;95582.31;5095524;28;1015;-57
2023/12/30 02:21:01;;;;;;;;;;;;;;;0.13;92.29;95584.69;5113348;28;1036;-57
2023/12/30 02:23:27;;;;;;;;;;;;;;;-0.10;93.03;95575.44;5113239;28;1052;-58
2023/12/30 02:25:53;;;;;;;;;;;;;;;-0.02;93.34;95570.63;5113318;28;1071;-57
2023/12/30 02:28:19;;;;;;;;;;;;;;;0.06;92.72;95582.47;5113092;28;1166;-57
2023/12/30 02:30:44;;;;;;;;;;;;;;;0.17;92.54;95575.69;5113517;28;930;-57
2023/12/30 02:33:10;;;;;;;;;;;;;;;0.13;92.87;95571.56;5113149;28;1069;-57
2023/12/30 02:35:36;;;;;;;;;;;;;;;0.24;93.15;95578.81;5121031;28;1093;-57
2023/12/30 02:38:02;;;;;;;;;;;;;;;0.28;93.18;95577.69;5133609;28;2015;-57
2023/12/30 02:40:28;;;;;;;;;;;;;;;0.37;94.00;95576.31;5133737;28;1032;-57
2023/12/30 02:42:54;;;;;;;;;;;;;;;0.46;92.16;95565.28;5136382;27;988;-57
2023/12/30 02:45:20;;;;;;;;;;;;;;;0.44;90.62;95582.94;5137739;27;961;-57
2023/12/30 02:47:47;;;;;;;;;;;;;;;0.33;91.23;95569.56;5137447;27;1091;-57
2023/12/30 02:50:13;;;;;;;;;;;;;;;0.09;89.90;95575.25;5119150;27;973;-57
2023/12/30 02:52:39;;;;;;;;;;;;;;;-0.22;92.54;95574.34;5137781;27;1077;-57
2023/12/30 02:55:06;;;;;;;;;;;;;;;-0.14;93.81;95573.09;5137503;27;1039;-57
2023/12/30 02:57:32;;;;;;;;;;;;;;;0.01;93.36;95571.38;5137429;27;1914;-57
2023/12/30 02:59:58;;;;;;;;;;;;;;;-0.01;92.84;95579.34;5137315;27;956;-57
2023/12/30 03:02:23;;;;;;;;;;;;;;;-0.04;92.54;95567.25;5137309;27;1051;-57
2023/12/30 03:04:49;;;;;;;;;;;;;;;-0.04;92.69;95569.00;5137173;27;1016;-57
2023/12/30 03:07:15;;;;;;;;;;;;;;;0.07;92.31;95577.13;5119035;27;985;-57
2023/12/30 03:09:41;;;;;;;;;;;;;;;0.13;92.43;95570.69;5137257;27;1059;-57
2023/12/30 03:12:08;;;;;;;;;;;;;;;0.13;92.44;95573.31;5137385;27;1086;-57
2023/12/30 03:14:35;;;;;;;;;;;;;;;0.15;92.26;95568.81;5136726;27;1310;-57
2023/12/30 03:17:01;;;;;;;;;;;;;;;0.08;91.76;95568.31;5136892;27;1910;-57
2023/12/30 03:19:27;;;;;;;;;;;;;;;0.06;92.20;95567.56;5137066;27;964;-57
2023/12/30 03:21:54;;;;;;;;;;;;;;;0.06;92.14;95571.94;5136862;27;1065;-57
2023/12/30 03:24:20;;;;;;;;;;;;;;;0.07;92.05;95569.25;5136874;27;1056;-57
2023/12/30 03:26:46;;;;;;;;;;;;;;;0.02;91.33;95573.94;5136790;27;1091;-57
2023/12/30 03:29:12;;;;;;;;;;;;;;;-0.09;92.85;95584.22;5100712;28;1157;-57
2023/12/30 03:31:38;;;;;;;;;;;;;;;-0.01;91.91;95582.81;5116262;28;1262;-57
2023/12/30 03:34:04;;;;;;;;;;;;;;;-0.27;89.95;95584.28;5116031;28;1092;-57
2023/12/30 03:36:30;;;;;;;;;;;;;;;-0.56;91.70;95580.63;5116065;28;1995;-57
2023/12/30 03:38:55;;;;;;;;;;;;;;;-0.64;93.23;95582.81;5116255;28;1016;-57
2023/12/30 03:41:22;;;;;;;;;;;;;;;-0.62;92.63;95587.06;5116103;28;966;-57
2023/12/30 03:43:48;;;;;;;;;;;;;;;-0.48;92.83;95583.66;5115885;28;1045;-57
2023/12/30 03:46:14;;;;;;;;;;;;;;;-0.42;92.34;95588.63;5115666;28;992;-57
2023/12/30 03:48:40;;;;;;;;;;;;;;;-0.35;92.67;95586.47;5115738;28;1130;-57
2023/12/30 03:51:06;;;;;;;;;;;;;;;-0.22;92.43;95592.75;5115736;28;1005;-57
2023/12/30 03:53:33;;;;;;;;;;;;;;;-0.24;91.83;95593.78;5114837;28;1058;-57
2023/12/30 03:55:59;;;;;;;;;;;;;;;-0.23;92.24;95598.97;5115498;28;1913;-57
2023/12/30 03:58:25;;;;;;;;;;;;;;;-0.33;90.66;95599.53;5115543;28;1039;-57
2023/12/30 04:00:51;;;;;;;;;;;;;;;-0.63;92.45;95595.84;5115732;28;1069;-57
2023/12/30 04:03:17;;;;;;;;;;;;;;;-0.63;92.92;95595.84;5115642;28;1003;-57
2023/12/30 04:05:43;;;;;;;;;;;;;;;-0.40;93.26;95588.50;5115663;28;986;-57
2023/12/30 04:08:09;;;;;;;;;;;;;;;-0.18;93.67;95596.06;5125227;27;1181;-57
2023/12/30 04:10:35;;;;;;;;;;;;;;;-0.15;93.71;95593.28;5135968;27;1257;-57
2023/12/30 04:13:01;;;;;;;;;;;;;;;-0.09;93.11;95590.31;5135848;27;1048;-57
2023/12/30 04:15:28;;;;;;;;;;;;;;;-0.01;91.72;95603.00;5135567;27;1515;-58
2023/12/30 04:17:54;;;;;;;;;;;;;;;0.03;92.20;95598.44;5135628;27;1909;-58
2023/12/30 04:20:20;;;;;;;;;;;;;;;-0.30;91.89;95581.00;5135543;27;1091;-59
2023/12/30 04:22:46;;;;;;;;;;;;;;;-0.28;92.58;95585.22;5135606;27;1119;-57
2023/12/30 04:25:12;;;;;;;;;;;;;;;-0.21;92.72;95588.34;5135489;27;1104;-58
2023/12/30 04:27:38;;;;;;;;;;;;;;;-0.15;92.55;95589.78;5130959;27;1197;-59
2023/12/30 04:30:04;;;;;;;;;;;;;;;-0.02;92.19;95575.88;5114868;28;1040;-58
2023/12/30 04:32:31;;;;;;;;;;;;;;;-0.02;92.49;95590.78;5115008;28;981;-60
2023/12/30 04:34:57;;;;;;;;;;;;;;;-0.32;92.36;95588.94;5115050;28;937;-59
2023/12/30 04:37:22;;;;;;;;;;;;;;;-0.37;93.17;95596.22;5114792;28;1905;-57
2023/12/30 04:39:49;;;;;;;;;;;;;;;-0.45;92.05;95593.19;5115031;28;1056;-57
2023/12/30 04:42:15;;;;;;;;;;;;;;;-0.44;92.80;95601.00;5114901;28;966;-57
2023/12/30 04:44:41;;;;;;;;;;;;;;;-0.37;92.94;95606.75;5114668;28;1003;-57
2023/12/30 04:47:07;;;;;;;;;;;;;;;-0.35;91.80;95610.13;5114534;28;977;-57
2023/12/30 04:49:33;;;;;;;;;;;;;;;-0.36;91.74;95611.09;5114533;28;1322;-57
2023/12/30 04:52:00;;;;;;;;;;;;;;;-0.53;89.54;95605.88;5114258;28;1978;-57
2023/12/30 04:54:30;;;;;;;;;;;;;;;-0.88;88.75;95605.97;5112468;28;1047;-57
2023/12/30 04:56:56;;;;;;;;;;;;;;;-0.92;90.99;95620.19;5113491;28;1905;-57
2023/12/30 04:59:22;;;;;;;;;;;;;;;-0.80;92.01;95615.16;5114360;28;1043;-57
2023/12/30 05:01:48;;;;;;;;;;;;;;;-0.76;92.00;95607.09;5113135;28;1234;-57
2023/12/30 05:04:14;;;;;;;;;;;;;;;-0.76;91.15;95622.84;5114479;28;980;-57
2023/12/30 05:06:40;;;;;;;;;;;;;;;-0.72;91.29;95609.50;5114281;28;1044;-57
2023/12/30 05:09:06;;;;;;;;;;;;;;;-0.71;91.00;95605.94;5114255;28;1107;-57
2023/12/30 05:11:32;;;;;;;;;;;;;;;-0.66;91.72;95608.31;5114456;28;968;-57
2023/12/30 05:13:58;;;;;;;;;;;;;;;-0.76;90.93;95621.06;5114162;28;1056;-57
2023/12/30 05:16:24;;;;;;;;;;;;;;;-0.71;91.79;95612.97;5131985;27;1901;-57
2023/12/30 05:18:50;;;;;;;;;;;;;;;-0.75;91.14;95609.66;5116490;27;1052;-57
2023/12/30 05:21:16;;;;;;;;;;;;;;;-0.76;89.65;95631.56;5134908;27;1036;-57
2023/12/30 05:23:43;;;;;;;;;;;;;;;-0.83;89.30;95628.44;5116335;27;1658;-57
2023/12/30 05:26:12;;;;;;;;;;;;;;;-1.04;88.20;95633.03;5134601;27;1032;-57
2023/12/30 05:28:38;;;;;;;;;;;;;;;-1.16;87.81;95641.50;5121391;27;1213;-57
2023/12/30 05:31:04;;;;;;;;;;;;;;;-1.30;88.80;95644.00;5114168;28;973;-57
2023/12/30 05:33:30;;;;;;;;;;;;;;;-1.60;94.78;95641.97;5095201;28;1153;-57
2023/12/30 05:35:56;;;;;;;;;;;;;;;-1.73;98.27;95639.09;5114148;28;1065;-56
2023/12/30 05:38:22;;;;;;;;;;;;;;;-1.55;99.03;95645.22;5113640;28;1909;-57
2023/12/30 05:40:48;;;;;;;;;;;;;;;-1.41;98.54;95647.16;5114101;28;1044;-57
2023/12/30 05:43:14;;;;;;;;;;;;;;;-1.27;97.66;95647.31;5095611;28;1040;-57
2023/12/30 05:45:41;;;;;;;;;;;;;;;-1.15;96.69;95647.63;5117892;27;1089;-57
2023/12/30 05:48:08;;;;;;;;;;;;;;;-1.12;96.04;95648.31;5134522;27;1045;-56
2023/12/30 05:50:34;;;;;;;;;;;;;;;-1.12;94.81;95645.69;5134359;27;1149;-57
2023/12/30 05:53:00;;;;;;;;;;;;;;;-1.13;93.08;95644.00;5116102;28;1004;-56
2023/12/30 05:55:26;;;;;;;;;;;;;;;-1.12;92.99;95640.44;5134294;28;964;-57
2023/12/30 05:57:52;;;;;;;;;;;;;;;-1.26;92.79;95638.50;5134248;28;1906;-57
2023/12/30 06:00:19;;;;;;;;;;;;;;;-1.36;92.95;95637.28;5116113;28;1032;-58
2023/12/30 06:02:45;;;;;;;;;;;;;;;-1.24;91.57;95641.91;5134270;28;957;-56
2023/12/30 06:05:11;;;;;;;;;;;;;;;-1.15;91.13;95645.00;5134284;28;973;-58
2023/12/30 06:07:40;;;;;;;;;;;;;;;-1.21;92.19;95641.75;5133971;28;1056;-58
2023/12/30 06:10:07;;;;;;;;;;;;;;;-1.23;90.91;95643.63;5134222;28;981;-58
2023/12/30 06:12:33;;;;;;;;;;;;;;;-1.30;90.95;95642.22;5133852;28;1064;-58
2023/12/30 06:14:59;;;;;;;;;;;;;;;-1.08;91.80;95639.38;5111884;28;1341;-59
2023/12/30 06:17:25;;;;;;;;;;;;;;;-0.99;92.15;95649.41;5114921;28;2005;-58
2023/12/30 06:19:51;;;;;;;;;;;;;;;-0.93;91.71;95649.97;5117805;28;953;-58
2023/12/30 06:22:17;;;;;;;;;;;;;;;-0.92;91.02;95649.06;5117361;28;1037;-58
2023/12/30 06:24:43;;;;;;;;;;;;;;;-0.97;89.72;95654.53;5117679;28;1045;-58
2023/12/30 06:27:09;;;;;;;;;;;;;;;-0.99;89.61;95649.41;5117554;28;1192;-58
2023/12/30 06:29:35;;;;;;;;;;;;;;;-0.89;90.61;95657.63;5117620;28;1059;-58
2023/12/30 06:32:01;;;;;;;;;;;;;;;-0.73;91.34;95667.34;5099343;28;1061;-58
2023/12/30 06:34:27;;;;;;;;;;;;;;;-0.61;91.05;95664.06;5117326;28;1074;-58
2023/12/30 06:36:53;;;;;;;;;;;;;;;-0.59;90.99;95670.09;5117222;28;1913;-58
2023/12/30 06:39:20;;;;;;;;;;;;;;;-0.71;89.35;95674.22;5117004;28;1028;-58
2023/12/30 06:41:46;;;;;;;;;;;;;;;-0.74;89.74;95673.50;5099208;28;992;-58
2023/12/30 06:44:12;;;;;;;;;;;;;;;-0.75;90.00;95688.44;5116836;28;1029;-58
2023/12/30 06:46:38;;;;;;;;;;;;;;;-0.75;91.49;95691.06;5117251;28;972;-58
2023/12/30 06:49:04;;;;;;;;;;;;;;;-0.57;92.02;95683.13;5117113;28;965;-58
2023/12/30 06:51:30;;;;;;;;;;;;;;;-0.73;90.63;95691.81;5116784;28;1080;-58
2023/12/30 06:53:56;;;;;;;;;;;;;;;-0.85;90.54;95701.19;5117200;28;999;-58
2023/12/30 06:56:22;;;;;;;;;;;;;;;-0.79;91.81;95703.50;5116641;28;1934;-57
2023/12/30 06:58:48;;;;;;;;;;;;;;;-0.70;91.58;95704.81;5117024;28;1034;-58
2023/12/30 07:01:14;;;;;;;;;;;;;;;-0.65;92.41;95705.41;5116848;28;985;-58
2023/12/30 07:03:40;;;;;;;;;;;;;;;-0.55;94.00;95702.28;5116976;28;957;-58
2023/12/30 07:06:06;;;;;;;;;;;;;;;-0.34;93.11;95706.44;5116845;28;972;-58
2023/12/30 07:08:32;;;;;;;;;;;;;;;0.19;90.67;95709.75;5116529;28;1099;-58
2023/12/30 07:10:58;;;;;;;;;;;;;;;0.58;86.91;95706.63;5116831;28;1051;-58
2023/12/30 07:13:24;;;;;;;;;;;;;;;0.90;85.37;95700.47;5116287;28;1060;-58
2023/12/30 07:15:50;;;;;;;;;;;;;;;0.90;85.48;95709.22;5116377;28;1092;-58
2023/12/30 07:18:19;;;;;;;;;;;;;;;1.49;83.77;95713.69;5116380;28;1933;-58
2023/12/30 07:20:45;;;;;;;;;;;;;;;1.91;81.09;95714.66;5116393;28;973;-58
2023/12/30 07:23:11;;;;;;;;;;;;;;;1.33;83.67;95714.63;5116353;28;1040;-58
2023/12/30 07:25:39;;;;;;;;;;;;;;;0.77;87.51;95708.22;5116374;28;1036;-58
2023/12/30 07:28:05;;;;;;;;;;;;;;;1.02;86.58;95704.19;5115203;28;1209;-58
2023/12/30 07:30:31;;;;;;;;;;;;;;;1.65;84.38;95708.34;5097819;28;973;-58
2023/12/30 07:32:57;;;;;;;;;;;;;;;2.31;80.65;95712.16;5116057;28;1087;-58
2023/12/30 07:35:24;;;;;;;;;;;;;;;2.25;80.88;95717.84;5116135;28;1040;-58
2023/12/30 07:37:50;;;;;;;;;;;;;;;2.04;82.68;95720.88;5115950;28;1988;-58
2023/12/30 07:40:16;;;;;;;;;;;;;;;1.43;86.10;95719.34;5098060;28;1017;-58
2023/12/30 07:42:42;;;;;;;;;;;;;;;0.92;88.87;95725.78;5116398;28;968;-58
2023/12/30 07:45:08;;;;;;;;;;;;;;;0.60;91.71;95729.41;5116090;28;977;-57
2023/12/30 07:47:34;;;;;;;;;;;;;;;0.56;92.89;95726.94;5115940;28;1022;-58
2023/12/30 07:50:00;;;;;;;;;;;;;;;0.58;92.29;95721.59;5115739;28;1020;-58
2023/12/30 07:52:26;;;;;;;;;;;;;;;0.43;92.65;95731.19;5114995;28;1308;-58
2023/12/30 07:54:52;;;;;;;;;;;;;;;0.34;93.30;95722.03;5115169;28;1059;-58
2023/12/30 07:57:19;;;;;;;;;;;;;;;0.55;93.61;95730.50;5115242;28;1910;-58
2023/12/30 07:59:45;;;;;;;;;;;;;;;0.87;92.46;95727.81;5115743;28;1004;-59
2023/12/30 08:02:11;;;;;;;;;;;;;;;1.04;93.06;95736.53;5115535;28;1012;-59
2023/12/30 08:04:36;;;;;;;;;;;;;;;1.22;90.72;95732.00;5115469;28;1085;-59
2023/12/30 08:07:03;;;;;;;;;;;;;;;1.33;90.66;95727.78;5115269;28;1091;-59
2023/12/30 08:09:29;;;;;;;;;;;;;;;1.41;91.35;95715.94;5097177;28;1043;-59
2023/12/30 08:11:55;;;;;;;;;;;;;;;1.38;89.99;95732.78;5115227;28;1019;-58
2023/12/30 08:14:21;;;;;;;;;;;;;;;1.40;91.77;95732.69;5115278;28;1239;-59
2023/12/30 08:16:47;;;;;;;;;;;;;;;1.49;91.29;95724.25;5115295;28;1910;-58
2023/12/30 08:19:16;;;;;;;;;;;;;;;1.69;92.21;95737.06;5115290;28;1011;-59
2023/12/30 08:21:42;;;;;;;;;;;;;;;1.83;91.42;95733.59;5115013;28;1025;-58
2023/12/30 08:24:10;;;;;;;;;;;;;;;1.93;91.44;95734.72;5115014;28;969;-58
2023/12/30 08:26:37;;;;;;;;;;;;;;;1.92;92.10;95737.47;5114890;28;1068;-59
2023/12/30 08:29:04;;;;;;;;;;;;;;;2.04;92.66;95736.69;5114857;28;1228;-59
2023/12/30 08:31:33;;;;;;;;;;;;;;;2.09;92.70;95734.63;5114958;28;1055;-59
2023/12/30 08:33:59;;;;;;;;;;;;;;;2.33;91.61;95744.59;5114659;28;1081;-59
2023/12/30 08:36:28;;;;;;;;;;;;;;;2.45;89.78;95738.53;5114828;28;2011;-59
2023/12/30 08:38:54;;;;;;;;;;;;;;;2.79;88.15;95743.44;5114568;28;1039;-59
2023/12/30 08:41:24;;;;;;;;;;;;;;;2.71;89.06;95744.81;5114420;28;1062;-59
2023/12/30 08:43:52;;;;;;;;;;;;;;;2.46;91.43;95742.03;5114877;28;1055;-59
2023/12/30 08:46:18;;;;;;;;;;;;;;;2.50;90.80;95739.13;5114727;28;964;-59
2023/12/30 08:48:44;;;;;;;;;;;;;;;2.47;92.17;95741.94;5114873;28;1099;-59
2023/12/30 08:51:13;;;;;;;;;;;;;;;2.63;91.57;95751.50;5114423;28;1055;-59
2023/12/30 08:53:39;;;;;;;;;;;;;;;2.69;90.32;95748.47;5114353;28;1037;-59
2023/12/30 08:56:06;;;;;;;;;;;;;;;2.67;91.21;95756.50;5114713;28;1072;-59
2023/12/30 08:58:32;;;;;;;;;;;;;;;2.60;91.52;95749.94;5114434;28;2000;-59
2023/12/30 09:00:58;;;;;;;;;;;;;;;2.58;91.59;95743.03;5114565;28;973;-59
2023/12/30 09:03:24;;;;;;;;;;;;;;;2.71;91.46;95754.50;5114259;28;1067;-59
2023/12/30 09:05:50;;;;;;;;;;;;;;;2.86;90.15;95756.16;5096354;28;992;-59
2023/12/30 09:08:16;;;;;;;;;;;;;;;2.92;88.38;95747.84;5113970;28;961;-59
2023/12/30 09:10:42;;;;;;;;;;;;;;;3.05;89.46;95744.41;5114375;28;1060;-58
2023/12/30 09:13:08;;;;;;;;;;;;;;;3.26;88.54;95737.72;5114154;28;1036;-59
2023/12/30 09:15:34;;;;;;;;;;;;;;;3.71;87.09;95730.25;5113888;28;1124;-59
2023/12/30 09:18:00;;;;;;;;;;;;;;;4.06;84.74;95724.34;5114054;28;1988;-59
2023/12/30 09:20:27;;;;;;;;;;;;;;;4.00;84.97;95722.09;5113821;28;1128;-59
2023/12/30 09:22:53;;;;;;;;;;;;;;;4.02;85.21;95722.00;5113782;28;949;-59
2023/12/30 09:25:19;;;;;;;;;;;;;;;4.44;83.56;95720.78;5113978;28;957;-58
2023/12/30 09:27:45;;;;;;;;;;;;;;;4.87;81.50;95712.34;5113924;28;1146;-58
2023/12/30 09:30:12;;;;;;;;;;;;;;;5.11;80.82;95708.84;5113767;28;1044;-59
2023/12/30 09:32:38;;;;;;;;;;;;;;;5.28;79.72;95704.94;5113786;28;1040;-58
2023/12/30 09:35:05;;;;;;;;;;;;;;;5.75;77.77;95704.94;5114074;28;973;-58
2023/12/30 09:37:31;;;;;;;;;;;;;;;6.18;76.87;95697.16;5113520;28;1999;-59
2023/12/30 09:39:59;;;;;;;;;;;;;;;6.38;75.74;95698.25;5113936;28;1044;-58
2023/12/30 09:42:26;;;;;;;;;;;;;;;6.52;75.03;95694.50;5113760;28;1031;-58
2023/12/30 09:44:52;;;;;;;;;;;;;;;6.44;74.66;95688.94;5113582;28;1107;-58
2023/12/30 09:47:18;;;;;;;;;;;;;;;6.93;74.91;95682.31;5113470;28;1032;-58
2023/12/30 09:49:44;;;;;;;;;;;;;;;6.79;74.35;95677.28;5113711;28;1020;-58
2023/12/30 09:52:10;;;;;;;;;;;;;;;6.63;75.44;95688.31;5112873;28;1020;-58
2023/12/30 09:54:37;;;;;;;;;;;;;;;6.91;75.25;95675.47;5113760;28;961;-58
2023/12/30 09:57:04;;;;;;;;;;;;;;;7.13;75.70;95669.19;5113682;28;1910;-58
2023/12/30 09:59:30;;;;;;;;;;;;;;;7.26;74.50;95667.19;5113545;28;1055;-58
2023/12/30 10:01:56;;;;;;;;;;;;;;;7.59;73.30;95662.69;5113564;28;1048;-58
2023/12/30 10:04:23;;;;;;;;;;;;;;;7.82;71.34;95658.06;5113597;28;988;-58
2023/12/30 10:06:54;;;;;;;;;;;;;;;7.75;71.69;95654.22;5113361;28;1027;-58
2023/12/30 10:09:20;;;;;;;;;;;;;;;7.41;74.77;95646.44;5113554;28;973;-58
2023/12/30 10:11:46;;;;;;;;;;;;;;;7.49;73.88;95643.16;5113646;28;988;-57
2023/12/30 10:14:12;;;;;;;;;;;;;;;7.85;73.99;95654.28;5113444;28;1033;-57
2023/12/30 10:16:38;;;;;;;;;;;;;;;8.17;71.96;95643.50;5113250;28;1975;-58
2023/12/30 10:19:08;;;;;;;;;;;;;;;8.16;71.30;95639.16;5113454;28;965;-58
2023/12/30 10:21:35;;;;;;;;;;;;;;;8.35;70.78;95636.56;5113148;28;1036;-56
2023/12/30 10:24:03;;;;;;;;;;;;;;;8.33;70.55;95635.84;5113609;28;1057;-58
2023/12/30 10:26:30;;;;;;;;;;;;;;;8.36;71.77;95629.41;5113646;28;1228;-58
2023/12/30 10:28:56;;;;;;;;;;;;;;;8.49;71.46;95627.38;5095564;28;1190;-57
2023/12/30 10:31:23;;;;;;;;;;;;;;;8.45;70.34;95617.97;5113345;28;1103;-56
2023/12/30 10:33:52;;;;;;;;;;;;;;;8.42;69.77;95628.06;5113630;28;1063;-57
2023/12/30 10:36:18;;;;;;;;;;;;;;;8.48;69.73;95617.69;5113506;28;1906;-57
2023/12/30 10:38:45;;;;;;;;;;;;;;;8.05;72.04;95620.63;5113530;28;961;-57
2023/12/30 10:41:14;;;;;;;;;;;;;;;7.88;71.89;95611.44;5113265;28;1083;-56
2023/12/30 10:43:40;;;;;;;;;;;;;;;7.68;73.95;95603.31;5113401;28;968;-56
2023/12/30 10:46:09;;;;;;;;;;;;;;;7.50;74.35;95600.44;5113348;28;1006;-57
2023/12/30 10:48:39;;;;;;;;;;;;;;;7.54;75.33;95601.88;5113165;28;1017;-56
2023/12/30 10:51:06;;;;;;;;;;;;;;;8.04;73.20;95585.13;5113232;28;1500;-57
2023/12/30 10:53:39;;;;;;;;;;;;;;;8.01;72.13;95583.59;5113049;28;1262;-57
2023/12/30 10:56:06;;;;;;;;;;;;;;;8.20;72.23;95574.81;5113310;28;1028;-57
2023/12/30 10:58:36;;;;;;;;;;;;;;;8.33;70.61;95576.41;5113128;28;1910;-57
2023/12/30 11:01:03;;;;;;;;;;;;;;;8.56;69.74;95563.72;5113096;28;1028;-57
2023/12/30 11:03:33;;;;;;;;;;;;;;;8.65;68.15;95570.88;5114714;28;1123;-57
2023/12/30 11:05:59;;;;;;;;;;;;;;;8.42;69.75;95567.59;5116763;28;1025;-57
2023/12/30 11:08:25;;;;;;;;;;;;;;;8.65;68.94;95562.88;5116888;28;1039;-57
2023/12/30 11:10:51;;;;;;;;;;;;;;;8.76;68.93;95562.75;5117020;28;1044;-57
2023/12/30 11:13:20;;;;;;;;;;;;;;;8.80;69.21;95560.63;5116884;28;1197;-57
2023/12/30 11:15:46;;;;;;;;;;;;;;;9.19;68.46;95561.44;5116411;28;1069;-57
2023/12/30 11:18:13;;;;;;;;;;;;;;;9.03;68.11;95560.34;5116789;28;2251;-57
2023/12/30 11:20:46;;;;;;;;;;;;;;;9.16;68.34;95561.75;5116639;28;977;-57
2023/12/30 11:23:13;;;;;;;;;;;;;;;9.23;68.06;95558.50;5116710;28;1276;-57
2023/12/30 11:25:43;;;;;;;;;;;;;;;9.07;68.90;95548.38;5116576;28;1048;-58
2023/12/30 11:28:19;;;;;;;;;;;;;;;9.09;68.62;95539.28;5116305;28;1169;-58
2023/12/30 11:31:12;;;;;;;;;;;;;;;9.35;67.96;95544.00;5116647;28;942;-57
2023/12/30 11:33:38;;;;;;;;;;;;;;;9.45;67.72;95544.84;5112854;28;1436;-58
2023/12/30 11:36:05;;;;;;;;;;;;;;;9.05;68.88;95537.88;5116247;28;1040;-58
2023/12/30 11:38:34;;;;;;;;;;;;;;;8.65;70.05;95530.88;5116022;28;1914;-58
2023/12/30 11:41:02;;;;;;;;;;;;;;;8.66;70.24;95524.56;5116107;28;973;-58
2023/12/30 11:43:28;;;;;;;;;;;;;;;8.94;70.24;95532.72;5116300;28;1004;-57
2023/12/30 11:45:54;;;;;;;;;;;;;;;9.22;68.46;95530.13;5116050;28;1111;-58
2023/12/30 11:48:20;;;;;;;;;;;;;;;9.19;68.88;95526.75;5098195;28;1000;-58
2023/12/30 11:50:51;;;;;;;;;;;;;;;9.16;68.62;95523.53;5116038;28;1032;-58
2023/12/30 11:53:17;;;;;;;;;;;;;;;9.05;68.81;95524.56;5115761;28;1000;-58
2023/12/30 11:55:43;;;;;;;;;;;;;;;8.83;69.53;95523.03;5115822;28;1059;-58
2023/12/30 11:58:09;;;;;;;;;;;;;;;8.91;70.87;95512.47;5116052;28;1914;-58
2023/12/30 12:00:35;;;;;;;;;;;;;;;9.38;68.89;95525.03;5115679;28;1045;-58
2023/12/30 12:03:03;;;;;;;;;;;;;;;9.64;68.18;95519.91;5097841;28;1000;-58
2023/12/30 12:05:30;;;;;;;;;;;;;;;9.90;67.10;95514.75;5115582;28;1065;-58
2023/12/30 12:07:56;;;;;;;;;;;;;;;9.86;67.19;95516.00;5115827;28;980;-58
2023/12/30 12:10:22;;;;;;;;;;;;;;;10.04;67.26;95510.72;5115722;28;973;-57
2023/12/30 12:12:48;;;;;;;;;;;;;;;10.30;65.53;95508.22;5115527;28;1114;-58
2023/12/30 12:15:14;;;;;;;;;;;;;;;10.40;64.92;95510.81;5114609;28;1084;-58
2023/12/30 12:17:41;;;;;;;;;;;;;;;10.32;64.56;95511.56;5115376;28;1905;-58
2023/12/30 12:20:08;;;;;;;;;;;;;;;10.32;64.86;95516.06;5115633;28;981;-58
2023/12/30 12:22:35;;;;;;;;;;;;;;;10.17;66.13;95507.72;5115200;28;1402;-58
2023/12/30 12:25:04;;;;;;;;;;;;;;;10.10;65.78;95504.78;5115493;28;1047;-58
2023/12/30 12:27:30;;;;;;;;;;;;;;;10.04;66.12;95504.53;5115368;28;1154;-58
2023/12/30 12:29:58;;;;;;;;;;;;;;;10.01;66.74;95500.31;5115400;28;1015;-58
2023/12/30 12:32:24;;;;;;;;;;;;;;;9.98;66.95;95497.97;5115192;28;1032;-58
2023/12/30 12:34:51;;;;;;;;;;;;;;;10.06;66.50;95498.06;5115089;28;1099;-58
2023/12/30 12:37:18;;;;;;;;;;;;;;;9.97;67.32;95501.63;5115066;28;1917;-58
2023/12/30 12:39:44;;;;;;;;;;;;;;;9.91;68.17;95512.91;5114461;28;1349;-58
2023/12/30 12:42:11;;;;;;;;;;;;;;;9.84;67.84;95515.31;5114790;28;1076;-58
2023/12/30 12:44:40;;;;;;;;;;;;;;;9.79;68.58;95509.59;5114828;28;1062;-58
2023/12/30 12:47:07;;;;;;;;;;;;;;;9.79;69.09;95504.25;5114722;28;1044;-58
2023/12/30 12:49:34;;;;;;;;;;;;;;;9.78;68.38;95503.38;5114719;28;961;-58
2023/12/30 12:52:00;;;;;;;;;;;;;;;9.89;67.15;95501.53;5114817;28;1064;-58
2023/12/30 12:54:26;;;;;;;;;;;;;;;9.91;67.35;95491.53;5114710;28;1035;-57
2023/12/30 12:56:52;;;;;;;;;;;;;;;9.94;68.30;95494.75;5114757;28;1991;-58
2023/12/30 12:59:19;;;;;;;;;;;;;;;9.98;68.97;95487.28;5114711;28;1011;-58
2023/12/30 13:01:45;;;;;;;;;;;;;;;9.94;69.05;95489.41;5114694;28;1040;-58